createdAt,value
2022-11-27T00:02:31.144Z,26.90
2022-11-27T00:05:06.959Z,22.33
2022-11-27T00:07:40.299Z,22.70
2022-11-27T00:10:15.216Z,17.83
2022-11-27T00:12:48.703Z,23.15
2022-11-27T00:15:22.640Z,16.58
2022-11-27T00:17:56.118Z,14.63
2022-11-27T00:20:29.913Z,20.05
2022-11-27T00:23:03.478Z,17.55
2022-11-27T00:25:38.097Z,15.02
2022-11-27T00:28:11.546Z,16.48
2022-11-27T00:30:44.811Z,10.38
2022-11-27T00:33:18.553Z,16.88
2022-11-27T00:35:51.831Z,17.30
2022-11-27T00:38:25.066Z,13.40
2022-11-27T00:41:07.711Z,15.98
2022-11-27T00:43:44.528Z,20.35
2022-11-27T00:46:26.651Z,14.10
2022-11-27T00:49:03.202Z,13.25
2022-11-27T00:51:37.533Z,17.40
2022-11-27T00:54:11.172Z,27.88
2022-11-27T00:56:46.263Z,13.52
2022-11-27T00:59:19.529Z,12.55
2022-11-27T01:01:53.320Z,13.35
2022-11-27T01:04:26.654Z,16.42
2022-11-27T01:07:00.273Z,16.30
2022-11-27T01:09:33.741Z,14.05
2022-11-27T01:12:09.160Z,14.57
2022-11-27T01:14:42.602Z,14.13
2022-11-27T01:17:16.027Z,15.43
2022-11-27T01:19:49.362Z,16.25
2022-11-27T01:22:22.991Z,14.75
2022-11-27T01:24:56.405Z,14.50
2022-11-27T01:27:31.258Z,15.77
2022-11-27T01:30:05.582Z,17.25
2022-11-27T01:32:39.037Z,18.73
2022-11-27T01:35:12.292Z,13.65
2022-11-27T01:37:46.002Z,18.50
2022-11-27T01:40:19.383Z,14.88
2022-11-27T01:42:54.181Z,19.52
2022-11-27T01:45:27.639Z,16.05
2022-11-27T01:48:03.995Z,13.88
2022-11-27T01:50:40.465Z,21.58
2022-11-27T01:53:18.882Z,14.98
2022-11-27T01:55:58.073Z,11.98
2022-11-27T01:58:34.589Z,16.83
2022-11-27T02:01:08.618Z,13.25
2022-11-27T02:03:42.176Z,14.40
2022-11-27T02:06:15.528Z,11.95
2022-11-27T02:08:49.288Z,17.05
2022-11-27T02:11:32.043Z,14.75
2022-11-27T02:14:15.435Z,14.50
2022-11-27T02:16:58.086Z,15.50
2022-11-27T02:19:47.196Z,11.77
2022-11-27T02:22:30.796Z,15.57
2022-11-27T02:25:10.333Z,12.77
2022-11-27T02:28:12.473Z,13.13
2022-11-27T02:30:52.729Z,13.38
2022-11-27T02:33:27.838Z,11.80
2022-11-27T02:36:07.827Z,12.85
2022-11-27T02:38:45.903Z,11.07
2022-11-27T02:41:23.414Z,12.13
2022-11-27T02:43:58.130Z,11.50
2022-11-27T02:46:33.756Z,14.15
2022-11-27T02:49:10.873Z,14.38
2022-11-27T02:51:50.169Z,15.30
2022-11-27T02:54:29.868Z,13.93
2022-11-27T02:57:05.834Z,12.38
2022-11-27T02:59:40.226Z,14.63
2022-11-27T03:02:20.976Z,16.83
2022-11-27T03:04:56.898Z,15.30
2022-11-27T03:07:37.223Z,16.10
2022-11-27T03:10:17.619Z,15.73
2022-11-27T03:12:52.116Z,14.15
2022-11-27T03:15:26.998Z,12.05
2022-11-27T03:18:07.797Z,16.00
2022-11-27T03:20:45.020Z,15.65
2022-11-27T03:23:18.296Z,14.40
2022-11-27T03:25:51.961Z,18.90
2022-11-27T03:28:26.082Z,14.65
2022-11-27T03:30:59.985Z,17.20
2022-11-27T03:33:34.803Z,16.75
2022-11-27T03:36:14.316Z,16.63
2022-11-27T03:38:49.940Z,15.77
2022-11-27T03:41:31.473Z,14.23
2022-11-27T03:44:22.797Z,21.95
2022-11-27T03:47:06.558Z,15.18
2022-11-27T03:49:57.315Z,20.48
2022-11-27T03:52:40.760Z,16.48
2022-11-27T03:55:18.720Z,18.02
2022-11-27T03:58:01.826Z,21.10
2022-11-27T04:00:40.510Z,19.90
2022-11-27T04:03:14.968Z,17.23
2022-11-27T04:05:49.612Z,20.48
2022-11-27T04:08:23.076Z,21.42
2022-11-27T04:10:56.780Z,18.40
2022-11-27T04:13:30.104Z,19.80
2022-11-27T04:16:03.930Z,22.52
2022-11-27T04:18:37.368Z,14.95
2022-11-27T04:21:12.741Z,20.92
2022-11-27T04:23:46.443Z,16.95
2022-11-27T04:26:19.718Z,19.40
2022-11-27T04:28:53.343Z,17.10
2022-11-27T04:31:26.638Z,20.17
2022-11-27T04:34:00.103Z,16.85
2022-11-27T04:36:39.027Z,21.95
2022-11-27T04:39:13.463Z,17.23
2022-11-27T04:41:46.758Z,20.58
2022-11-27T04:44:22.866Z,18.48
2022-11-27T04:46:56.482Z,20.15
2022-11-27T04:49:29.760Z,16.00
2022-11-27T04:52:05.447Z,18.10
2022-11-27T04:54:39.400Z,15.38
2022-11-27T04:57:12.924Z,14.18
2022-11-27T04:59:46.354Z,17.83
2022-11-27T05:02:19.793Z,19.23
2022-11-27T05:04:53.078Z,21.45
2022-11-27T05:07:28.321Z,19.98
2022-11-27T05:10:01.617Z,18.42
2022-11-27T05:12:34.871Z,15.90
2022-11-27T05:15:10.262Z,16.73
2022-11-27T05:17:43.591Z,16.50
2022-11-27T05:20:17.287Z,14.98
2022-11-27T05:22:51.954Z,13.80
2022-11-27T05:25:25.527Z,18.20
2022-11-27T05:27:58.935Z,13.82
2022-11-27T05:30:32.187Z,17.52
2022-11-27T05:33:05.831Z,13.20
2022-11-27T05:35:39.119Z,18.25
2022-11-27T05:38:14.218Z,13.35
2022-11-27T05:40:47.821Z,16.02
2022-11-27T05:43:21.054Z,17.42
2022-11-27T05:45:54.477Z,18.20
2022-11-27T05:48:27.732Z,15.02
2022-11-27T05:51:01.286Z,13.93
2022-11-27T05:53:36.307Z,14.63
2022-11-27T05:56:12.427Z,13.05
2022-11-27T05:58:47.786Z,14.93
2022-11-27T06:01:21.495Z,16.08
2022-11-27T06:03:55.251Z,12.70
2022-11-27T06:06:28.485Z,10.25
2022-11-27T06:09:05.758Z,14.48
2022-11-27T06:11:43.157Z,14.48
2022-11-27T06:14:16.393Z,12.07
2022-11-27T06:16:49.788Z,15.98
2022-11-27T06:19:23.216Z,10.43
2022-11-27T06:21:56.553Z,16.73
2022-11-27T06:24:31.203Z,14.27
2022-11-27T06:27:04.561Z,13.02
2022-11-27T06:29:38.348Z,12.95
2022-11-27T06:32:11.677Z,11.20
2022-11-27T06:34:45.366Z,17.70
2022-11-27T06:37:18.746Z,12.27
2022-11-27T06:39:53.378Z,13.43
2022-11-27T06:42:29.490Z,14.35
2022-11-27T06:45:02.777Z,14.82
2022-11-27T06:47:36.197Z,11.85
2022-11-27T06:50:10.143Z,15.30
2022-11-27T06:52:43.404Z,11.30
2022-11-27T06:55:18.172Z,12.73
2022-11-27T06:57:52.231Z,12.90
2022-11-27T07:00:25.495Z,10.82
2022-11-27T07:02:58.816Z,11.65
2022-11-27T07:05:32.129Z,12.10
2022-11-27T07:08:06.088Z,8.13
2022-11-27T07:10:41.016Z,11.75
2022-11-27T07:13:14.246Z,17.40
2022-11-27T07:15:47.489Z,14.15
2022-11-27T07:18:20.747Z,13.73
2022-11-27T07:20:56.666Z,12.60
2022-11-27T07:23:30.870Z,12.60
2022-11-27T07:26:09.202Z,11.43
2022-11-27T07:28:43.824Z,11.60
2022-11-27T07:31:19.140Z,8.32
2022-11-27T07:33:53.289Z,7.38
2022-11-27T07:36:28.941Z,6.50
2022-11-27T07:39:33.920Z,6.43
2022-11-27T07:45:07.454Z,11.43
2022-11-27T07:47:41.303Z,12.80
2022-11-27T07:50:14.759Z,11.07
2022-11-27T07:52:48.073Z,18.67
2022-11-27T07:55:21.337Z,10.45
2022-11-27T07:57:55.948Z,6.05
2022-11-27T08:00:29.380Z,9.75
2022-11-27T08:03:03.159Z,10.85
2022-11-27T08:05:37.271Z,4.95
2022-11-27T08:08:10.698Z,5.60
2022-11-27T08:10:43.953Z,7.45
2022-11-27T08:13:18.950Z,7.53
2022-11-27T08:15:52.233Z,8.68
2022-11-27T08:18:25.645Z,3.55
2022-11-27T08:21:01.793Z,7.75
2022-11-27T08:23:35.304Z,5.80
2022-11-27T08:26:09.929Z,5.50
2022-11-27T08:28:44.822Z,4.07
2022-11-27T08:31:18.166Z,3.65
2022-11-27T08:33:51.660Z,3.85
2022-11-27T08:36:27.048Z,5.03
2022-11-27T08:39:00.315Z,7.20
2022-11-27T08:41:33.913Z,6.95
2022-11-27T08:44:09.589Z,6.53
2022-11-27T08:46:44.722Z,6.18
2022-11-27T08:49:18.310Z,8.90
2022-11-27T08:51:51.907Z,5.82
2022-11-27T08:54:25.226Z,5.13
2022-11-27T08:56:58.470Z,7.07
2022-11-27T08:59:33.268Z,4.28
2022-11-27T09:02:06.498Z,5.43
2022-11-27T09:04:40.185Z,6.55
2022-11-27T09:07:15.922Z,4.07
2022-11-27T09:09:49.246Z,5.15
2022-11-27T09:12:22.557Z,4.57
2022-11-27T09:14:57.207Z,7.43
2022-11-27T09:17:32.017Z,4.63
2022-11-27T09:20:06.332Z,6.25
2022-11-27T09:22:39.641Z,5.43
2022-11-27T09:25:12.929Z,3.85
2022-11-27T09:27:46.333Z,5.10
2022-11-27T09:30:21.255Z,4.00
2022-11-27T09:32:54.560Z,6.45
2022-11-27T09:35:27.847Z,4.65
2022-11-27T09:38:01.136Z,5.25
2022-11-27T09:40:35.245Z,4.93
2022-11-27T09:43:11.332Z,4.80
2022-11-27T09:45:51.042Z,7.45
2022-11-27T09:48:32.133Z,4.05
2022-11-27T09:51:10.510Z,3.17
2022-11-27T09:53:48.743Z,5.43
2022-11-27T09:56:22.298Z,2.13
2022-11-27T09:58:59.678Z,3.30
2022-11-27T10:01:44.242Z,4.00
2022-11-27T10:04:22.000Z,3.35
2022-11-27T10:07:08.653Z,6.03
2022-11-27T10:09:55.317Z,4.40
2022-11-27T10:12:37.875Z,2.65
2022-11-27T10:15:18.198Z,4.30
2022-11-27T10:17:59.498Z,5.25
2022-11-27T10:20:37.803Z,3.78
2022-11-27T10:23:19.380Z,4.78
2022-11-27T10:25:56.015Z,6.72
2022-11-27T10:28:36.641Z,9.98
2022-11-27T10:31:15.836Z,4.93
2022-11-27T10:33:53.969Z,5.03
2022-11-27T10:36:31.072Z,5.07
2022-11-27T10:39:06.782Z,10.27
2022-11-27T10:41:50.230Z,7.25
2022-11-27T10:44:30.041Z,6.72
2022-11-27T10:47:05.437Z,2.80
2022-11-27T10:49:42.074Z,3.33
2022-11-27T10:52:17.063Z,4.22
2022-11-27T10:54:56.089Z,5.90
2022-11-27T10:57:49.813Z,4.03
2022-11-27T11:00:25.173Z,3.92
2022-11-27T11:03:02.394Z,3.03
2022-11-27T11:06:04.787Z,4.00
2022-11-27T11:08:32.443Z,3.25
2022-11-27T11:11:08.760Z,2.20
2022-11-27T11:13:47.214Z,3.70
2022-11-27T11:16:24.914Z,3.03
2022-11-27T11:19:01.864Z,2.65
2022-11-27T11:21:41.169Z,3.47
2022-11-27T11:24:19.550Z,2.53
2022-11-27T11:26:55.200Z,2.00
2022-11-27T11:29:35.257Z,2.28
2022-11-27T11:32:13.141Z,2.67
2022-11-27T11:34:49.060Z,2.30
2022-11-27T11:37:27.021Z,3.33
2022-11-27T11:40:02.501Z,2.75
2022-11-27T11:42:38.325Z,3.00
2022-11-27T11:45:22.081Z,2.45
2022-11-27T11:47:56.818Z,5.68
2022-11-27T11:50:35.606Z,2.63
2022-11-27T11:53:17.673Z,5.03
2022-11-27T11:56:00.899Z,3.97
2022-11-27T11:58:47.589Z,3.85
2022-11-27T12:01:33.421Z,5.22
2022-11-27T12:04:32.574Z,3.28
2022-11-27T12:07:17.054Z,8.43
2022-11-27T12:09:58.419Z,25.80
2022-11-27T12:12:49.067Z,6.15
2022-11-27T12:15:28.321Z,7.00
2022-11-27T12:18:06.126Z,3.00
2022-11-27T12:20:58.879Z,3.92
2022-11-27T12:24:06.473Z,1.77
2022-11-27T12:26:51.780Z,2.08
2022-11-27T12:29:44.213Z,1.15
2022-11-27T12:32:45.037Z,1.88
2022-11-27T12:35:35.671Z,3.28
2022-11-27T12:38:24.087Z,1.88
2022-11-27T12:41:35.679Z,4.13
2022-11-27T12:44:19.434Z,3.75
2022-11-27T12:46:59.506Z,3.22
2022-11-27T12:49:39.809Z,2.40
2022-11-27T12:52:18.441Z,1.88
2022-11-27T12:54:56.517Z,2.47
2022-11-27T12:57:37.974Z,3.40
2022-11-27T13:00:19.106Z,2.50
2022-11-27T13:03:03.758Z,3.10
2022-11-27T13:05:42.909Z,2.42
2022-11-27T13:08:21.361Z,3.72
2022-11-27T13:10:59.187Z,3.90
2022-11-27T13:13:35.262Z,4.35
2022-11-27T13:16:18.842Z,5.28
2022-11-27T13:18:57.716Z,2.17
2022-11-27T13:21:34.941Z,3.13
2022-11-27T13:24:13.627Z,4.32
2022-11-27T13:26:52.012Z,3.20
2022-11-27T13:29:30.163Z,3.58
2022-11-27T13:32:08.036Z,2.63
2022-11-27T13:34:45.175Z,2.58
2022-11-27T13:37:31.172Z,4.40
2022-11-27T13:40:07.678Z,3.20
2022-11-27T13:42:46.104Z,3.80
2022-11-27T13:45:23.937Z,3.90
2022-11-27T13:48:01.101Z,4.05
2022-11-27T13:50:44.640Z,3.13
2022-11-27T13:53:18.106Z,3.15
2022-11-27T13:55:56.777Z,2.88
2022-11-27T13:58:33.417Z,3.78
2022-11-27T14:01:16.322Z,12.55
2022-11-27T14:03:51.774Z,5.45
2022-11-27T14:06:28.819Z,3.03
2022-11-27T14:09:04.013Z,2.88
2022-11-27T14:11:41.372Z,4.28
2022-11-27T14:14:19.601Z,3.10
2022-11-27T14:16:57.662Z,3.05
2022-11-27T14:19:35.240Z,3.25
2022-11-27T14:22:16.113Z,2.88
2022-11-27T14:24:55.968Z,2.35
2022-11-27T14:27:36.234Z,2.88
2022-11-27T14:30:26.698Z,2.72
2022-11-27T14:33:00.248Z,2.63
2022-11-27T14:35:34.916Z,2.78
2022-11-27T14:38:12.618Z,3.53
2022-11-27T14:40:47.329Z,4.28
2022-11-27T14:43:23.892Z,3.63
2022-11-27T14:46:00.626Z,5.45
2022-11-27T14:48:43.592Z,3.03
2022-11-27T14:51:21.005Z,3.50
2022-11-27T14:53:59.199Z,3.83
2022-11-27T14:56:34.730Z,5.50
2022-11-27T14:59:12.105Z,8.18
2022-11-27T15:01:46.960Z,5.03
2022-11-27T15:04:28.962Z,8.45
2022-11-27T15:07:07.550Z,11.10
2022-11-27T15:09:45.495Z,4.85
2022-11-27T15:12:21.742Z,10.63
2022-11-27T15:14:59.572Z,33.92
2022-11-27T15:17:35.627Z,31.85
2022-11-27T15:20:16.878Z,21.15
2022-11-27T15:22:52.702Z,11.15
2022-11-27T15:25:45.023Z,11.55
2022-11-27T15:28:33.871Z,13.88
2022-11-27T15:31:32.757Z,12.48
2022-11-27T15:34:21.100Z,16.88
2022-11-27T15:36:57.993Z,19.67
2022-11-27T15:39:39.378Z,19.60
2022-11-27T15:42:14.602Z,19.52
2022-11-27T15:44:48.979Z,19.27
2022-11-27T15:47:25.213Z,10.80
2022-11-27T15:49:59.404Z,7.60
2022-11-27T15:52:33.195Z,8.43
2022-11-27T15:55:09.344Z,9.52
2022-11-27T15:57:42.828Z,25.52
2022-11-27T16:00:16.898Z,24.08
2022-11-27T16:02:50.356Z,15.30
2022-11-27T16:05:23.689Z,16.67
2022-11-27T16:07:57.307Z,16.15
2022-11-27T16:10:32.125Z,10.18
2022-11-27T16:13:05.431Z,15.68
2022-11-27T16:15:38.748Z,44.00
2022-11-27T16:18:12.023Z,153.95
2022-11-27T16:20:46.220Z,67.55
2022-11-27T16:23:19.576Z,18.42
2022-11-27T16:25:54.366Z,18.85
2022-11-27T16:28:28.065Z,18.88
2022-11-27T16:31:03.453Z,17.30
2022-11-27T16:33:37.033Z,15.88
2022-11-27T16:36:12.523Z,13.48
2022-11-27T16:38:46.652Z,18.83
2022-11-27T16:41:22.236Z,16.23
2022-11-27T16:43:57.888Z,21.85
2022-11-27T16:46:32.525Z,16.63
2022-11-27T16:49:07.498Z,68.85
2022-11-27T16:51:41.879Z,29.20
2022-11-27T16:54:17.686Z,35.88
2022-11-27T16:56:53.886Z,17.88
2022-11-27T16:59:27.541Z,19.63
2022-11-27T17:02:02.314Z,19.08
2022-11-27T17:04:35.840Z,34.22
2022-11-27T17:07:10.148Z,27.63
2022-11-27T17:09:43.536Z,18.90
2022-11-27T17:12:18.276Z,16.90
2022-11-27T17:14:51.786Z,11.73
2022-11-27T17:17:25.605Z,15.43
2022-11-27T17:20:00.662Z,15.85
2022-11-27T17:22:34.299Z,16.17
2022-11-27T17:25:11.084Z,16.45
2022-11-27T17:27:48.332Z,17.75
2022-11-27T17:30:21.870Z,20.80
2022-11-27T17:32:58.054Z,22.67
2022-11-27T17:35:31.584Z,16.67
2022-11-27T17:38:04.963Z,18.40
2022-11-27T17:40:38.276Z,20.08
2022-11-27T17:43:12.906Z,22.38
2022-11-27T17:45:46.309Z,21.35
2022-11-27T17:48:19.569Z,20.35
2022-11-27T17:50:53.038Z,24.83
2022-11-27T17:53:27.041Z,22.33
2022-11-27T17:56:04.228Z,19.73
2022-11-27T17:58:39.463Z,30.65
2022-11-27T18:01:17.195Z,27.08
2022-11-27T18:03:51.380Z,21.77
2022-11-27T18:06:24.885Z,25.20
2022-11-27T18:08:58.746Z,14.68
2022-11-27T18:11:34.339Z,26.92
2022-11-27T18:14:09.124Z,18.60
2022-11-27T18:16:42.846Z,18.77
2022-11-27T18:19:16.406Z,23.70
2022-11-27T18:21:50.139Z,29.23
2022-11-27T18:24:25.150Z,23.95
2022-11-27T18:27:14.307Z,23.55
2022-11-27T18:29:50.074Z,19.85
2022-11-27T18:32:23.456Z,23.63
2022-11-27T18:34:56.880Z,24.35
2022-11-27T18:37:30.193Z,24.85
2022-11-27T18:40:03.666Z,23.45
2022-11-27T18:42:37.189Z,21.40
2022-11-27T18:45:31.264Z,19.25
2022-11-27T18:48:05.979Z,22.00
2022-11-27T18:50:39.365Z,24.45
2022-11-27T18:53:13.159Z,25.77
2022-11-27T18:55:51.542Z,49.53
2022-11-27T18:58:26.141Z,49.63
2022-11-27T19:01:00.896Z,57.80
2022-11-27T19:03:36.779Z,53.42
2022-11-27T19:06:14.158Z,52.28
2022-11-27T19:08:47.875Z,48.38
2022-11-27T19:11:24.407Z,43.50
2022-11-27T19:13:59.287Z,52.92
2022-11-27T19:16:35.776Z,42.08
2022-11-27T19:19:30.023Z,44.25
2022-11-27T19:22:03.569Z,39.65
2022-11-27T19:24:38.137Z,32.15
2022-11-27T19:27:11.481Z,35.03
2022-11-27T19:29:44.782Z,42.15
2022-11-27T19:32:19.938Z,39.80
2022-11-27T19:34:53.864Z,38.70
2022-11-27T19:37:34.388Z,48.03
2022-11-27T19:40:10.796Z,47.60
2022-11-27T19:42:45.860Z,40.88
2022-11-27T19:45:20.110Z,39.38
2022-11-27T19:47:54.941Z,38.58
2022-11-27T19:50:29.601Z,41.47
2022-11-27T19:53:05.323Z,63.38
2022-11-27T19:55:39.128Z,113.72
2022-11-27T19:58:13.972Z,119.38
2022-11-27T20:00:47.261Z,93.82
2022-11-27T20:03:21.969Z,79.55
2022-11-27T20:06:03.370Z,71.50
2022-11-27T20:08:37.062Z,61.97
2022-11-27T20:11:12.258Z,56.08
2022-11-27T20:13:45.783Z,54.20
2022-11-27T20:16:21.483Z,50.05
2022-11-27T20:18:57.220Z,22.73
2022-11-27T20:21:30.501Z,34.00
2022-11-27T20:24:04.843Z,27.30
2022-11-27T20:26:42.618Z,32.08
2022-11-27T20:29:16.792Z,39.00
2022-11-27T20:31:50.334Z,42.45
2022-11-27T20:34:26.032Z,54.03
2022-11-27T20:36:59.809Z,64.60
2022-11-27T20:39:33.320Z,33.47
2022-11-27T20:42:07.355Z,38.88
2022-11-27T20:44:40.747Z,42.92
2022-11-27T20:47:14.170Z,45.35
2022-11-27T20:49:48.821Z,35.08
2022-11-27T20:52:22.128Z,42.00
2022-11-27T20:54:57.715Z,35.00
2022-11-27T20:57:31.034Z,32.38
2022-11-27T21:00:06.390Z,37.63
2022-11-27T21:02:41.167Z,28.75
2022-11-27T21:05:16.113Z,34.67
2022-11-27T21:07:49.824Z,38.58
2022-11-27T21:10:23.876Z,34.47
2022-11-27T21:12:57.248Z,40.95
2022-11-27T21:15:30.558Z,38.20
2022-11-27T21:18:04.330Z,56.92
2022-11-27T21:20:39.099Z,45.78
2022-11-27T21:23:12.469Z,42.97
2022-11-27T21:25:45.929Z,40.78
2022-11-27T21:28:19.231Z,47.45
2022-11-27T21:30:52.655Z,42.60
2022-11-27T21:33:25.998Z,42.38
2022-11-27T21:36:00.682Z,43.25
2022-11-27T21:38:34.102Z,44.25
2022-11-27T21:41:07.661Z,41.38
2022-11-27T21:43:41.474Z,46.78
2022-11-27T21:46:17.316Z,39.78
2022-11-27T21:48:52.628Z,40.05
2022-11-27T21:51:27.901Z,39.58
2022-11-27T21:54:02.739Z,45.10
2022-11-27T21:56:38.576Z,38.05
2022-11-27T21:59:13.870Z,39.92
2022-11-27T22:01:47.962Z,40.20
2022-11-27T22:04:21.404Z,39.88
2022-11-27T22:06:56.259Z,37.83
2022-11-27T22:09:33.337Z,29.88
2022-11-27T22:12:06.956Z,33.05
2022-11-27T22:14:40.531Z,40.45
2022-11-27T22:17:14.113Z,42.35
2022-11-27T22:19:47.564Z,37.75
2022-11-27T22:22:22.197Z,32.97
2022-11-27T22:24:55.728Z,37.42
2022-11-27T22:27:29.007Z,42.35
2022-11-27T22:30:02.421Z,65.97
2022-11-27T22:32:35.850Z,70.55
2022-11-27T22:35:09.575Z,48.53
2022-11-27T22:37:44.225Z,49.90
2022-11-27T22:40:17.668Z,44.30
2022-11-27T22:42:51.046Z,46.10
2022-11-27T22:45:24.462Z,44.50
2022-11-27T22:47:57.929Z,41.63
2022-11-27T22:50:31.851Z,36.63
2022-11-27T22:53:06.462Z,41.35
2022-11-27T22:55:39.819Z,46.92
2022-11-27T22:58:13.048Z,42.13
2022-11-27T23:00:46.327Z,37.33
2022-11-27T23:03:19.676Z,40.55
2022-11-27T23:05:53.065Z,36.97
2022-11-27T23:08:27.988Z,42.15
2022-11-27T23:11:01.332Z,39.28
2022-11-27T23:13:34.661Z,42.53
2022-11-27T23:16:08.893Z,42.65
2022-11-27T23:18:44.376Z,37.75
2022-11-27T23:21:19.892Z,33.47
2022-11-27T23:23:54.591Z,37.10
2022-11-27T23:26:27.916Z,33.83
2022-11-27T23:29:01.350Z,38.78
2022-11-27T23:31:36.221Z,32.85
2022-11-27T23:34:13.558Z,43.80
2022-11-27T23:36:46.845Z,40.45
2022-11-27T23:39:21.500Z,39.97
2022-11-27T23:41:54.766Z,36.65
2022-11-27T23:44:28.181Z,36.25
2022-11-27T23:47:01.452Z,31.65
2022-11-27T23:49:34.688Z,39.05
2022-11-27T23:52:09.250Z,35.60
2022-11-27T23:54:45.531Z,36.25
2022-11-27T23:57:19.109Z,40.45
2022-11-27T23:59:52.343Z,46.88
